createdAt,value
2022-11-16T00:02:13.621Z,95158.41
2022-11-16T00:04:40.583Z,95155.03
2022-11-16T00:07:07.926Z,95146.41
2022-11-16T00:09:35.031Z,95143.72
2022-11-16T00:12:04.824Z,95137.00
2022-11-16T00:14:34.061Z,95137.63
2022-11-16T00:17:01.221Z,95144.16
2022-11-16T00:19:28.486Z,95144.34
2022-11-16T00:21:55.164Z,95142.59
2022-11-16T00:24:23.520Z,95142.97
2022-11-16T00:26:50.910Z,95141.38
2022-11-16T00:29:20.746Z,95138.19
2022-11-16T00:31:48.176Z,95139.31
2022-11-16T00:34:15.570Z,95132.31
2022-11-16T00:36:42.199Z,95132.72
2022-11-16T00:39:12.205Z,95135.09
2022-11-16T00:41:39.013Z,95147.28
2022-11-16T00:44:05.798Z,95142.09
2022-11-16T00:46:32.780Z,95137.31
2022-11-16T00:48:59.506Z,95138.88
2022-11-16T00:51:26.093Z,95142.88
2022-11-16T00:53:52.675Z,95141.19
2022-11-16T00:56:19.282Z,95132.19
2022-11-16T00:58:45.868Z,95138.09
2022-11-16T01:01:12.754Z,95125.91
2022-11-16T01:03:39.829Z,95122.22
2022-11-16T01:06:12.755Z,95131.50
2022-11-16T01:08:40.909Z,95134.47
2022-11-16T01:11:26.821Z,95132.69
2022-11-16T01:13:54.123Z,95139.59
2022-11-16T01:16:22.212Z,95139.63
2022-11-16T01:18:50.945Z,95131.78
2022-11-16T01:21:18.834Z,95118.19
2022-11-16T01:23:45.912Z,95122.19
2022-11-16T01:26:12.682Z,95115.97
2022-11-16T01:28:39.292Z,95105.84
2022-11-16T01:31:06.095Z,95107.16
2022-11-16T01:33:32.712Z,95098.03
2022-11-16T01:35:59.293Z,95097.31
2022-11-16T01:38:29.607Z,95092.03
2022-11-16T01:40:56.658Z,95088.78
2022-11-16T01:43:25.491Z,95089.19
2022-11-16T01:45:52.589Z,95083.66
2022-11-16T01:48:30.350Z,95077.06
2022-11-16T01:50:57.953Z,95067.41
2022-11-16T01:53:24.982Z,95061.94
2022-11-16T01:55:52.440Z,95067.03
2022-11-16T01:58:23.191Z,95060.53
2022-11-16T02:00:50.662Z,95060.84
2022-11-16T02:03:19.078Z,95052.09
2022-11-16T02:05:51.739Z,95052.19
2022-11-16T02:08:55.525Z,95040.56
2022-11-16T02:11:27.933Z,95042.94
2022-11-16T02:14:31.071Z,95049.91
2022-11-16T02:17:28.281Z,95042.09
2022-11-16T02:20:33.864Z,95040.31
2022-11-16T02:23:23.670Z,95040.25
2022-11-16T02:26:11.983Z,95043.84
2022-11-16T02:28:56.750Z,95038.91
2022-11-16T02:31:28.221Z,95046.38
2022-11-16T02:33:57.061Z,95042.50
2022-11-16T02:36:25.631Z,95054.00
2022-11-16T02:39:04.182Z,95037.13
2022-11-16T02:41:35.578Z,95029.78
2022-11-16T02:44:08.239Z,95018.94
2022-11-16T02:46:41.853Z,95016.69
2022-11-16T02:49:12.667Z,95008.69
2022-11-16T02:51:40.218Z,95000.78
2022-11-16T02:54:14.685Z,95006.13
2022-11-16T02:57:03.095Z,94988.78
2022-11-16T02:59:36.668Z,94981.25
2022-11-16T03:02:11.038Z,94977.91
2022-11-16T03:04:49.022Z,94981.09
2022-11-16T03:07:20.539Z,94971.72
2022-11-16T03:09:50.169Z,94969.63
2022-11-16T03:12:24.070Z,94976.84
2022-11-16T03:14:54.421Z,94962.19
2022-11-16T03:17:28.223Z,94967.94
2022-11-16T03:20:20.726Z,94951.91
2022-11-16T03:23:13.933Z,94955.75
2022-11-16T03:25:47.290Z,94958.38
2022-11-16T03:28:17.781Z,94961.91
2022-11-16T03:30:52.801Z,94962.88
2022-11-16T03:33:25.714Z,94967.19
2022-11-16T03:36:11.618Z,94974.91
2022-11-16T03:38:41.197Z,94959.75
2022-11-16T03:41:10.043Z,94959.09
2022-11-16T03:43:39.063Z,94961.91
2022-11-16T03:46:06.272Z,94962.63
2022-11-16T03:48:37.597Z,94952.72
2022-11-16T03:51:05.318Z,94948.44
2022-11-16T03:53:32.024Z,94936.59
2022-11-16T03:55:58.649Z,94935.44
2022-11-16T03:58:25.317Z,94920.81
2022-11-16T04:00:52.888Z,94918.50
2022-11-16T04:03:19.953Z,94915.81
2022-11-16T04:06:06.874Z,94916.28
2022-11-16T04:08:52.288Z,94921.97
2022-11-16T04:11:40.061Z,94924.47
2022-11-16T04:14:33.308Z,94925.16
2022-11-16T04:17:18.110Z,94915.22
2022-11-16T04:20:03.349Z,94916.59
2022-11-16T04:22:56.421Z,94915.16
2022-11-16T04:25:30.396Z,94927.44
2022-11-16T04:28:16.684Z,94913.03
2022-11-16T04:31:07.948Z,94916.16
2022-11-16T04:33:53.452Z,94910.97
2022-11-16T04:36:38.505Z,94905.22
2022-11-16T04:39:05.279Z,94900.56
2022-11-16T04:41:50.751Z,94904.22
2022-11-16T04:44:17.738Z,94900.41
2022-11-16T04:47:03.138Z,94903.09
2022-11-16T04:49:29.775Z,94895.28
2022-11-16T04:51:56.507Z,94899.75
2022-11-16T04:54:23.104Z,94891.88
2022-11-16T04:56:49.767Z,94891.88
2022-11-16T04:59:16.393Z,94890.50
2022-11-16T05:02:01.656Z,94898.16
2022-11-16T05:04:28.260Z,94894.25
2022-11-16T05:06:54.933Z,94895.59
2022-11-16T05:09:21.622Z,94894.47
2022-11-16T05:11:48.281Z,94892.75
2022-11-16T05:14:14.945Z,94898.56
2022-11-16T05:16:41.710Z,94892.28
2022-11-16T05:19:27.124Z,94888.19
2022-11-16T05:21:53.769Z,94891.78
2022-11-16T05:24:35.561Z,94889.41
2022-11-16T05:27:08.429Z,94892.63
2022-11-16T05:29:35.574Z,94907.41
2022-11-16T05:32:02.755Z,94909.28
2022-11-16T05:34:29.421Z,94909.41
2022-11-16T05:36:56.834Z,94912.56
2022-11-16T05:39:23.641Z,94912.44
2022-11-16T05:41:50.933Z,94910.38
2022-11-16T05:44:17.926Z,94908.94
2022-11-16T05:46:45.242Z,94922.34
2022-11-16T05:49:12.799Z,94925.19
2022-11-16T05:51:41.351Z,94930.16
2022-11-16T05:54:08.428Z,94939.31
2022-11-16T05:56:35.351Z,94950.25
2022-11-16T05:59:02.348Z,94952.19
2022-11-16T06:01:29.115Z,94953.59
2022-11-16T06:03:55.765Z,94952.44
2022-11-16T06:06:22.483Z,94951.91
2022-11-16T06:08:49.135Z,94956.94
2022-11-16T06:11:15.753Z,94969.38
2022-11-16T06:13:42.386Z,94967.44
2022-11-16T06:16:09.587Z,94980.16
2022-11-16T06:18:41.582Z,94993.84
2022-11-16T06:21:09.519Z,94990.22
2022-11-16T06:23:36.430Z,95004.94
2022-11-16T06:26:03.864Z,95002.69
2022-11-16T06:28:30.610Z,95016.66
2022-11-16T06:30:57.351Z,95026.13
2022-11-16T06:33:24.102Z,95031.84
2022-11-16T06:35:50.871Z,95044.88
2022-11-16T06:38:20.716Z,95057.56
2022-11-16T06:40:52.271Z,95061.91
2022-11-16T06:43:19.838Z,95058.94
2022-11-16T06:45:50.816Z,95050.22
2022-11-16T06:48:18.738Z,95069.13
2022-11-16T06:50:47.014Z,95075.72
2022-11-16T06:53:13.613Z,95070.78
2022-11-16T06:55:40.213Z,95086.41
2022-11-16T06:58:06.879Z,95096.69
2022-11-16T07:00:33.909Z,95099.22
2022-11-16T07:03:03.443Z,95101.25
2022-11-16T07:05:31.199Z,95097.03
2022-11-16T07:07:58.337Z,95105.63
2022-11-16T07:10:25.565Z,95110.81
2022-11-16T07:12:52.147Z,95101.66
2022-11-16T07:15:19.558Z,95093.91
2022-11-16T07:17:46.273Z,95095.53
2022-11-16T07:20:13.179Z,95090.38
2022-11-16T07:22:39.762Z,95091.97
2022-11-16T07:25:07.092Z,95087.81
2022-11-16T07:27:33.733Z,95091.38
2022-11-16T07:30:02.223Z,95096.50
2022-11-16T07:32:31.076Z,95091.38
2022-11-16T07:34:59.368Z,95089.78
2022-11-16T07:37:26.499Z,95083.41
2022-11-16T07:39:53.165Z,95095.44
2022-11-16T07:42:19.937Z,95099.88
2022-11-16T07:44:46.531Z,95094.50
2022-11-16T07:47:13.236Z,95099.88
2022-11-16T07:49:39.826Z,95099.09
2022-11-16T07:52:09.393Z,95098.06
2022-11-16T07:54:36.984Z,95092.78
2022-11-16T07:57:03.741Z,95095.66
2022-11-16T07:59:30.316Z,95091.78
2022-11-16T08:01:57.257Z,95091.50
2022-11-16T08:04:23.865Z,95097.75
2022-11-16T08:06:51.849Z,95093.88
2022-11-16T08:09:18.823Z,95089.28
2022-11-16T08:11:47.121Z,95089.47
2022-11-16T08:14:14.104Z,95089.88
2022-11-16T08:16:40.741Z,95093.22
2022-11-16T08:19:07.329Z,95087.63
2022-11-16T08:21:34.003Z,95085.25
2022-11-16T08:24:00.562Z,95085.34
2022-11-16T08:26:27.807Z,95086.72
2022-11-16T08:28:56.569Z,95084.69
2022-11-16T08:31:26.733Z,95085.56
2022-11-16T08:33:53.760Z,95080.13
2022-11-16T08:36:20.707Z,95087.66
2022-11-16T08:38:48.784Z,95093.19
2022-11-16T08:41:16.596Z,95086.34
2022-11-16T08:43:44.693Z,95094.19
2022-11-16T08:46:11.617Z,95093.25
2022-11-16T08:48:38.586Z,95092.31
2022-11-16T08:51:22.529Z,95099.94
2022-11-16T08:53:50.134Z,95090.06
2022-11-16T08:56:18.753Z,95096.84
2022-11-16T08:58:52.459Z,95101.91
2022-11-16T09:01:24.289Z,95097.09
2022-11-16T09:03:51.984Z,95091.25
2022-11-16T09:06:19.116Z,95097.56
2022-11-16T09:08:46.721Z,95094.31
2022-11-16T09:11:16.256Z,95099.69
2022-11-16T09:13:44.332Z,95092.06
2022-11-16T09:16:11.389Z,95089.59
2022-11-16T09:18:38.302Z,95091.59
2022-11-16T09:21:05.103Z,95096.69
2022-11-16T09:23:31.865Z,95092.28
2022-11-16T09:26:02.329Z,95097.88
2022-11-16T09:28:29.357Z,95092.72
2022-11-16T09:31:00.919Z,95084.88
2022-11-16T09:33:30.065Z,95096.41
2022-11-16T09:36:01.338Z,95087.44
2022-11-16T09:38:40.697Z,95088.25
2022-11-16T09:41:26.287Z,95080.38
2022-11-16T09:43:55.720Z,95075.94
2022-11-16T09:46:49.196Z,95083.06
2022-11-16T09:49:35.962Z,95085.09
2022-11-16T09:52:08.295Z,95072.78
2022-11-16T09:54:39.906Z,95079.28
2022-11-16T09:57:12.598Z,95072.50
2022-11-16T09:59:52.192Z,95069.00
2022-11-16T10:02:18.717Z,95078.16
2022-11-16T10:04:58.119Z,95070.44
2022-11-16T10:07:37.239Z,95057.94
2022-11-16T10:10:04.169Z,95053.22
2022-11-16T10:12:43.689Z,95050.69
2022-11-16T10:15:16.025Z,95045.31
2022-11-16T10:18:29.906Z,95045.31
2022-11-16T10:21:03.638Z,95035.03
2022-11-16T10:23:54.673Z,95029.00
2022-11-16T10:26:41.037Z,95029.00
2022-11-16T10:29:46.557Z,95025.97
2022-11-16T10:32:28.098Z,95017.28
2022-11-16T10:35:03.481Z,95021.53
2022-11-16T10:37:32.683Z,95009.56
2022-11-16T10:39:59.384Z,95014.63
2022-11-16T10:42:37.258Z,95009.22
2022-11-16T10:45:28.885Z,95018.38
2022-11-16T10:48:06.294Z,95007.78
2022-11-16T10:50:35.910Z,95004.50
2022-11-16T10:53:02.490Z,95003.97
2022-11-16T10:55:29.469Z,95007.72
2022-11-16T10:57:59.874Z,95006.53
2022-11-16T11:00:36.618Z,94994.69
2022-11-16T11:03:03.364Z,94999.75
2022-11-16T11:05:30.779Z,94991.19
2022-11-16T11:08:03.552Z,94993.56
2022-11-16T11:10:36.744Z,94990.19
2022-11-16T11:13:06.054Z,94985.91
2022-11-16T11:15:32.921Z,94980.06
2022-11-16T11:18:23.799Z,94976.31
2022-11-16T11:20:58.077Z,94979.19
2022-11-16T11:23:26.327Z,94978.75
2022-11-16T11:25:58.570Z,94968.50
2022-11-16T11:28:36.709Z,94973.56
2022-11-16T11:31:11.709Z,94968.72
2022-11-16T11:33:43.053Z,94963.16
2022-11-16T11:36:09.992Z,94969.88
2022-11-16T11:39:00.265Z,94968.03
2022-11-16T11:41:49.075Z,94963.84
2022-11-16T11:44:17.797Z,94962.28
2022-11-16T11:49:49.911Z,94952.84
2022-11-16T11:53:00.766Z,94961.00
2022-11-16T11:55:27.591Z,94956.25
2022-11-16T11:57:55.214Z,94956.72
2022-11-16T12:00:22.742Z,94949.72
2022-11-16T12:03:07.777Z,94955.34
2022-11-16T12:05:46.258Z,94952.19
2022-11-16T12:08:14.783Z,94953.75
2022-11-16T12:11:16.776Z,94950.13
2022-11-16T12:13:57.888Z,94949.50
2022-11-16T12:16:24.405Z,94944.44
2022-11-16T12:19:04.769Z,94938.34
2022-11-16T12:21:49.524Z,94941.59
2022-11-16T12:24:54.562Z,94942.72
2022-11-16T12:27:39.976Z,94951.00
2022-11-16T12:30:17.887Z,94938.88
2022-11-16T12:33:13.638Z,94946.56
2022-11-16T12:35:54.331Z,94948.66
2022-11-16T12:38:43.229Z,94953.09
2022-11-16T12:41:44.875Z,94952.25
2022-11-16T12:44:17.296Z,94954.09
2022-11-16T12:46:52.797Z,94958.84
2022-11-16T12:49:25.105Z,94962.63
2022-11-16T12:52:00.384Z,94950.22
2022-11-16T12:55:04.234Z,94952.94
2022-11-16T12:57:44.329Z,94956.28
2022-11-16T13:00:16.641Z,94961.38
2022-11-16T13:03:12.314Z,94959.66
2022-11-16T13:06:05.611Z,94952.16
2022-11-16T13:09:16.606Z,94966.16
2022-11-16T13:11:52.208Z,94963.34
2022-11-16T13:14:38.940Z,94973.13
2022-11-16T13:17:07.554Z,94966.66
2022-11-16T13:19:39.641Z,94967.38
2022-11-16T13:22:19.781Z,94972.09
2022-11-16T13:25:06.261Z,94970.94
2022-11-16T13:27:58.478Z,94967.31
2022-11-16T13:30:33.610Z,94966.88
2022-11-16T13:33:27.073Z,94968.72
2022-11-16T13:35:53.696Z,94968.72
2022-11-16T13:38:52.524Z,94973.44
2022-11-16T13:41:43.652Z,94972.31
2022-11-16T13:44:20.450Z,94974.66
2022-11-16T13:46:58.179Z,94975.31
2022-11-16T13:49:49.778Z,94987.59
2022-11-16T13:52:23.543Z,94987.41
2022-11-16T13:54:54.435Z,94989.34
2022-11-16T13:57:26.173Z,94984.00
2022-11-16T14:00:01.692Z,94979.09
2022-11-16T14:02:45.586Z,94986.94
2022-11-16T14:05:12.111Z,94986.94
2022-11-16T14:07:47.394Z,94993.13
2022-11-16T14:10:49.099Z,94986.44
2022-11-16T14:13:45.704Z,94979.91
2022-11-16T14:16:15.137Z,94980.97
2022-11-16T14:18:42.938Z,94981.72
2022-11-16T14:21:32.460Z,94982.00
2022-11-16T14:24:28.356Z,94984.22
2022-11-16T14:27:06.397Z,94982.72
2022-11-16T14:29:51.207Z,94982.16
2022-11-16T14:32:22.583Z,94985.22
2022-11-16T14:34:52.193Z,94974.59
2022-11-16T14:37:21.807Z,94979.84
2022-11-16T14:39:50.444Z,94976.97
2022-11-16T14:42:18.298Z,94974.34
2022-11-16T14:44:45.151Z,94978.34
2022-11-16T14:47:24.821Z,94980.44
2022-11-16T14:49:52.485Z,94973.16
2022-11-16T14:52:26.646Z,94976.84
2022-11-16T14:55:00.666Z,94969.56
2022-11-16T14:57:27.323Z,94967.78
2022-11-16T15:00:22.656Z,94974.84
2022-11-16T15:02:59.157Z,94972.75
2022-11-16T15:05:35.537Z,94971.13
2022-11-16T15:08:13.579Z,94966.59
2022-11-16T15:10:49.540Z,94965.94
2022-11-16T15:13:24.288Z,94960.97
2022-11-16T15:16:15.021Z,94970.66
2022-11-16T15:18:41.863Z,94969.47
2022-11-16T15:21:22.538Z,94967.09
2022-11-16T15:24:15.520Z,94969.75
2022-11-16T15:26:38.652Z,94961.63
2022-11-16T15:29:05.284Z,94963.75
2022-11-16T15:31:31.884Z,94962.97
2022-11-16T15:33:58.482Z,94969.41
2022-11-16T15:36:41.334Z,94957.22
2022-11-16T15:39:23.694Z,94963.59
2022-11-16T15:41:51.872Z,94961.31
2022-11-16T15:44:21.608Z,94951.69
2022-11-16T15:46:53.205Z,94950.56
2022-11-16T15:49:53.183Z,94953.91
2022-11-16T15:52:42.526Z,94950.56
2022-11-16T15:55:21.381Z,94947.84
2022-11-16T15:58:02.590Z,94945.19
2022-11-16T16:00:31.705Z,94941.03
2022-11-16T16:03:05.204Z,94938.69
2022-11-16T16:05:39.788Z,94946.09
2022-11-16T16:08:24.133Z,94949.25
2022-11-16T16:11:12.054Z,94952.09
2022-11-16T16:13:41.845Z,94955.41
2022-11-16T16:16:28.036Z,94950.34
2022-11-16T16:18:58.275Z,94947.00
2022-11-16T16:21:28.584Z,94947.34
2022-11-16T16:23:56.645Z,94949.25
2022-11-16T16:26:23.829Z,94949.25
2022-11-16T16:28:51.077Z,94942.28
2022-11-16T16:31:19.237Z,94939.25
2022-11-16T16:33:46.430Z,94939.72
2022-11-16T16:36:13.795Z,94943.19
2022-11-16T16:38:40.405Z,94940.19
2022-11-16T16:41:07.678Z,94942.41
2022-11-16T16:43:34.852Z,94941.19
2022-11-16T16:46:03.949Z,94936.25
2022-11-16T16:48:30.735Z,94932.75
2022-11-16T16:50:57.444Z,94941.59
2022-11-16T16:53:24.133Z,94933.97
2022-11-16T16:55:50.753Z,94933.50
2022-11-16T16:58:17.579Z,94940.88
2022-11-16T17:00:44.349Z,94939.44
2022-11-16T17:03:11.233Z,94934.63
2022-11-16T17:05:38.082Z,94939.56
2022-11-16T17:08:04.936Z,94936.97
2022-11-16T17:10:31.544Z,94933.97
2022-11-16T17:12:58.746Z,94941.81
2022-11-16T17:15:25.356Z,94937.97
2022-11-16T17:17:52.066Z,94940.47
2022-11-16T17:20:18.677Z,94945.72
2022-11-16T17:22:46.025Z,94937.75
2022-11-16T17:25:12.747Z,94931.00
2022-11-16T17:27:39.410Z,94926.06
2022-11-16T17:30:07.320Z,94925.84
2022-11-16T17:32:33.901Z,94921.13
2022-11-16T17:35:00.477Z,94926.06
2022-11-16T17:37:27.058Z,94928.16
2022-11-16T17:39:53.653Z,94930.66
2022-11-16T17:42:20.320Z,94935.25
2022-11-16T17:44:46.899Z,94942.59
2022-11-16T17:47:13.554Z,94939.91
2022-11-16T17:49:40.216Z,94934.84
2022-11-16T17:52:07.423Z,94937.13
2022-11-16T17:54:34.090Z,94926.22
2022-11-16T17:57:00.666Z,94936.97
2022-11-16T17:59:29.756Z,94930.94
2022-11-16T18:01:58.075Z,94924.09
2022-11-16T18:04:24.945Z,94934.50
2022-11-16T18:06:51.589Z,94929.25
2022-11-16T18:09:18.938Z,94923.69
2022-11-16T18:11:45.816Z,94924.78
2022-11-16T18:14:12.455Z,94926.31
2022-11-16T18:16:42.398Z,94931.09
2022-11-16T18:19:10.084Z,94926.41
2022-11-16T18:21:40.788Z,94923.72
2022-11-16T18:24:08.570Z,94931.75
2022-11-16T18:26:35.194Z,94924.41
2022-11-16T18:29:01.891Z,94925.84
2022-11-16T18:31:29.839Z,94925.19
2022-11-16T18:33:56.662Z,94919.91
2022-11-16T18:36:23.284Z,94929.00
2022-11-16T18:38:50.149Z,94915.19
2022-11-16T18:41:20.036Z,94920.22
2022-11-16T18:43:58.265Z,94915.75
2022-11-16T18:46:27.978Z,94911.09
2022-11-16T18:48:55.469Z,94910.91
2022-11-16T18:51:23.832Z,94911.53
2022-11-16T18:53:50.717Z,94903.56
2022-11-16T18:56:17.839Z,94902.00
2022-11-16T18:58:52.915Z,94896.44
2022-11-16T19:01:22.705Z,94894.13
2022-11-16T19:03:49.756Z,94890.53
2022-11-16T19:06:17.894Z,94886.00
2022-11-16T19:08:49.011Z,94889.03
2022-11-16T19:11:20.477Z,94881.53
2022-11-16T19:13:53.335Z,94884.50
2022-11-16T19:16:19.940Z,94878.41
2022-11-16T19:18:46.517Z,94873.16
2022-11-16T19:21:15.383Z,94874.06
2022-11-16T19:23:44.567Z,94879.53
2022-11-16T19:26:13.153Z,94874.16
2022-11-16T19:28:42.134Z,94874.78
2022-11-16T19:31:09.839Z,94865.56
2022-11-16T19:33:37.349Z,94861.38
2022-11-16T19:36:16.252Z,94865.44
2022-11-16T19:38:43.340Z,94862.94
2022-11-16T19:41:11.992Z,94856.91
2022-11-16T19:43:38.907Z,94860.53
2022-11-16T19:46:08.338Z,94863.41
2022-11-16T19:48:35.498Z,94859.91
2022-11-16T19:51:09.158Z,94856.13
2022-11-16T19:53:36.836Z,94852.88
2022-11-16T19:56:04.501Z,94848.81
2022-11-16T19:58:32.140Z,94843.53
2022-11-16T20:01:06.310Z,94833.22
2022-11-16T20:03:34.101Z,94826.41
2022-11-16T20:06:16.068Z,94835.59
2022-11-16T20:08:46.504Z,94839.50
2022-11-16T20:11:15.299Z,94839.69
2022-11-16T20:13:42.670Z,94835.59
2022-11-16T20:16:11.177Z,94829.91
2022-11-16T20:18:39.392Z,94827.78
2022-11-16T20:21:06.871Z,94826.50
2022-11-16T20:23:35.168Z,94813.53
2022-11-16T20:26:06.248Z,94816.69
2022-11-16T20:28:37.396Z,94806.84
2022-11-16T20:31:08.120Z,94811.69
2022-11-16T20:33:35.135Z,94808.28
2022-11-16T20:36:07.687Z,94801.72
2022-11-16T20:38:35.688Z,94805.41
2022-11-16T20:41:16.336Z,94801.06
2022-11-16T20:43:44.039Z,94803.19
2022-11-16T20:46:15.705Z,94808.38
2022-11-16T20:48:43.247Z,94803.34
2022-11-16T20:51:15.267Z,94797.56
2022-11-16T20:53:41.846Z,94797.88
2022-11-16T20:56:10.530Z,94787.66
2022-11-16T20:58:37.800Z,94798.44
2022-11-16T21:01:07.124Z,94789.94
2022-11-16T21:03:34.263Z,94789.00
2022-11-16T21:06:01.477Z,94788.72
2022-11-16T21:08:29.693Z,94782.72
2022-11-16T21:10:56.912Z,94787.50
2022-11-16T21:13:42.222Z,94782.13
2022-11-16T21:16:15.154Z,94788.94
2022-11-16T21:18:42.230Z,94786.59
2022-11-16T21:21:13.726Z,94794.97
2022-11-16T21:23:51.332Z,94791.38
2022-11-16T21:26:26.290Z,94796.91
2022-11-16T21:28:53.669Z,94795.94
2022-11-16T21:31:25.513Z,94797.69
2022-11-16T21:33:53.099Z,94789.97
2022-11-16T21:36:21.969Z,94793.28
2022-11-16T21:38:48.907Z,94797.41
2022-11-16T21:41:17.106Z,94798.44
2022-11-16T21:43:44.304Z,94800.06
2022-11-16T21:46:15.802Z,94808.09
2022-11-16T21:48:42.703Z,94811.50
2022-11-16T21:51:11.809Z,94812.44
2022-11-16T21:53:38.871Z,94809.47
2022-11-16T21:56:07.297Z,94816.84
2022-11-16T21:58:34.182Z,94821.91
2022-11-16T22:01:02.144Z,94815.94
2022-11-16T22:03:31.538Z,94822.47
2022-11-16T22:06:18.990Z,94816.47
2022-11-16T22:08:46.833Z,94814.69
2022-11-16T22:11:14.559Z,94819.53
2022-11-16T22:13:41.455Z,94815.94
2022-11-16T22:16:10.784Z,94806.06
2022-11-16T22:18:37.729Z,94801.00
2022-11-16T22:21:05.367Z,94810.88
2022-11-16T22:23:32.469Z,94810.47
2022-11-16T22:26:10.357Z,94806.34
2022-11-16T22:28:37.569Z,94818.28
2022-11-16T22:31:12.863Z,94806.78
2022-11-16T22:33:40.237Z,94807.91
2022-11-16T22:36:09.360Z,94812.16
2022-11-16T22:38:36.654Z,94812.31
2022-11-16T22:41:03.839Z,94818.59
2022-11-16T22:43:31.725Z,94826.50
2022-11-16T22:46:00.000Z,94826.03
2022-11-16T22:48:37.273Z,94830.44
2022-11-16T22:51:27.990Z,94828.41
2022-11-16T22:54:00.272Z,94827.78
2022-11-16T22:56:28.144Z,94829.69
2022-11-16T22:58:55.864Z,94826.69
2022-11-16T23:01:23.256Z,94825.75
2022-11-16T23:03:50.553Z,94834.13
2022-11-16T23:06:17.584Z,94812.44
2022-11-16T23:08:44.497Z,94809.41
2022-11-16T23:11:32.583Z,94800.44
2022-11-16T23:14:18.341Z,94790.31
2022-11-16T23:16:45.416Z,94797.22
2022-11-16T23:19:32.966Z,94787.53
2022-11-16T23:22:18.509Z,94790.81
2022-11-16T23:25:04.201Z,94785.53
2022-11-16T23:28:19.971Z,94771.84
2022-11-16T23:30:46.540Z,94768.06
2022-11-16T23:33:13.267Z,94765.25
2022-11-16T23:35:39.842Z,94756.13
2022-11-16T23:38:07.533Z,94746.97
2022-11-16T23:40:37.199Z,94757.22
2022-11-16T23:43:43.152Z,94758.63
2022-11-16T23:46:09.708Z,94756.44
2022-11-16T23:48:36.279Z,94763.06
2022-11-16T23:51:02.865Z,94763.69
2022-11-16T23:53:29.446Z,94760.84
2022-11-16T23:56:05.766Z,94753.28
2022-11-16T23:58:32.850Z,94743.56
